Ana Sayfa
METAR-TAF:

METAR-TAF

Havaalanları :

Batam, Endonezya

Enlem: 01-07-15N, Boylam: 104-07-07E, yükseklik: 38 m

Güncel hava durumu gözlemi

Rapor saat 17:00 UTC de 5 saat ve 24 dakika önce yapıldı.
Sakin rüzgar
Sıcaklık 27°C
Nem 84%
Basınç 1013 hPa
Görüş mesafesi 10 km veya daha fazla
1400 ft yükseklikte az bulutlu

METAR: WIDD 161700Z 00000KT 9999 FEW014 27/24 Q1013 NOSIG

Saat: 05:24 (22:24 UTC)

Tahmin

Rapor saat 11:00 UTC de 11 saat ve 24 dakika önce yapıldı.
Ayın 16'si saat 12 UTC'den ayın 17'si saat 12 UTC'ye kadar geçerli Tahmin
Rüzgar kuzeydoğudan 3 kt
Görüş mesafesi 10 km veya daha fazla
1400 ft yükseklikte parçalı bulutlu
Olasılık 30% :
Geçici
ayın 16'si saat 16 UTC'den ayın 16'si saat 19 UTC'ye kadar
Görüş mesafesi: 5000 m
1400 ft yükseklikte az bulutlu, Kümülonimbus.
gök gürültülü fırtına, hafif yağmur

TAF: WIDD 161100Z 1612/1712 05003KT 9999 SCT014 PROB30 TEMPO 1616/1619 5000 -TSRA FEW014CB

4.000'den fazla havaalanı için hava durumu gözlemleri ve tahminleri (METAR ve TAF raporları).

Kullanılabilir istasyonlar harita üzerinde sarı ve kırmızı noktalarla gösterilir.

İstasyonun adını görmek için fareyi noktanın üzerinde gezdirin.

Sonrasında hava gözlem ve tahminlerini görmek için tıklayın.

Haritayı değiştirmek için: yaklaştırmak için siyah artı işaretli yeşil düğmeye ve uzaklaştırmak için de eksi işaretli düğmeye hızla tıklayın; bitişik haritalar için yeşil okları kullanın.


METAR-TAF: